Terminal Aerodrome Forecast
Issued by NWS Indianapolis, IN

Home | Current Version | Previous Version | Text Only | Print | Product List | Glossary On
Versions: 1 2 3 4 5 6 7 8 9 10 11 12 13 14 15 16 17 18 19 20 21 22 23 24 25 26 27
000
FTUS43 KIND 261100
TAFIND
TAF
KIND 261121Z 2612/2718 19010KT P6SM VCTS BKN050CB OVC090
      TEMPO 2612/2614 23010G30KT 5SM -TSRA OVC040CB
     FM261500 22014KT P6SM BKN050
     FM262300 23009KT P6SM VCTS BKN040CB
     FM270400 19010KT 3SM TSRA BKN040CB
     FM271100 20010KT P6SM BKN015=

USA.gov is the U.S. government's official web portal to all federal, state and local government web resources and services.